KRQO

Details ICAO KRQO
Name El Reno Regional
Region United States
Timezone America/Chicago (UTC-6.0)
Plans Departing 1
Arriving 1
Stats Elevation 1,417 ft / 432 m (AMSL)
Location 35.472584° -98.005940°
Runways 2
Magnetic Variation 4.027° E
Sunrise 2017-12-11 13:32:45 UTC / 2017-12-11 07:32:45 Local
Sunset 2017-12-11 23:20:58 UTC / 2017-12-11 17:20:58 Local
Advertisement - Login to hide

Runways

ID Width Length Bearing (true) Bearing (mag) Surface Threshold Offset Overrun Length
17 75 ft / 23 m 5,612 ft / 1,710 m 179.98° 175.95° Concrete 0 ft / 0 m 0 ft / 0 m
18 190 ft / 58 m 4,641 ft / 1,415 m 180.00° 175.97° Dirt 0 ft / 0 m 0 ft / 0 m
35 75 ft / 23 m 5,612 ft / 1,710 m 359.98° 355.95° Concrete 0 ft / 0 m 0 ft / 0 m
36 190 ft / 58 m 4,641 ft / 1,415 m 0.00° 355.97° Dirt 0 ft / 0 m 0 ft / 0 m

Map

Weather


0- 5 10 15 20 25 30 35+ Temperature / ° C

Clouds and Precipitation
Forecast for 2017-12-11 18:00 UTC. Updated 16 minutes ago

Ground ~20,000 ft ~40,000 ft Winds

METAR

KRQO 111735Z AUTO 24006KT 18/M07 A3016 RMK AO2 T01831072

TAF

Not found

Frequencies

Unicom 122.80 MHz CTAF/UNICOM
Approach 124.60 MHz OKE CITY APP/DEP
Warning: Do not use this data for real-world aviation or navigation. No guarantee of current accuracy is given.